sensor_id;sensor_type;location;lat;lon;timestamp;P1;durP1;ratioP1;P2;durP2;ratioP2
74160;SDS011;62512;-46.434;168.382;2022-08-19T00:00:52;6.4;;;4.2;;
74160;SDS011;62512;-46.434;168.382;2022-08-19T00:01:54;6.7;;;4.0;;
74160;SDS011;62512;-46.434;168.382;2022-08-19T00:02:53;6.5;;;4.2;;
74160;SDS011;62512;-46.434;168.382;2022-08-19T00:03:52;6.4;;;4.3;;
74160;SDS011;62512;-46.434;168.382;2022-08-19T00:04:52;6.9;;;4.0;;
74160;SDS011;62512;-46.434;168.382;2022-08-19T00:05:52;5.9;;;4.0;;
74160;SDS011;62512;-46.434;168.382;2022-08-19T00:06:53;6.9;;;4.3;;
74160;SDS011;62512;-46.434;168.382;2022-08-19T00:07:52;8.0;;;4.2;;
74160;SDS011;62512;-46.434;168.382;2022-08-19T00:08:52;6.8;;;4.1;;
74160;SDS011;62512;-46.434;168.382;2022-08-19T00:09:52;7.5;;;4.5;;
74160;SDS011;62512;-46.434;168.382;2022-08-19T00:10:52;5.8;;;3.7;;
74160;SDS011;62512;-46.434;168.382;2022-08-19T00:11:54;5.9;;;3.8;;
74160;SDS011;62512;-46.434;168.382;2022-08-19T00:12:53;5.8;;;3.8;;
74160;SDS011;62512;-46.434;168.382;2022-08-19T00:14:53;6.1;;;3.4;;
74160;SDS011;62512;-46.434;168.382;2022-08-19T00:15:52;5.8;;;3.1;;
74160;SDS011;62512;-46.434;168.382;2022-08-19T00:16:53;3.7;;;2.7;;
74160;SDS011;62512;-46.434;168.382;2022-08-19T00:17:52;4.5;;;3.1;;
74160;SDS011;62512;-46.434;168.382;2022-08-19T00:18:53;4.5;;;2.9;;
74160;SDS011;62512;-46.434;168.382;2022-08-19T00:19:52;3.7;;;2.5;;
74160;SDS011;62512;-46.434;168.382;2022-08-19T00:20:53;4.7;;;2.6;;
74160;SDS011;62512;-46.434;168.382;2022-08-19T00:21:52;4.7;;;3.1;;
74160;SDS011;62512;-46.434;168.382;2022-08-19T00:23:53;2.5;;;1.3;;
74160;SDS011;62512;-46.434;168.382;2022-08-19T00:24:52;2.6;;;1.6;;
74160;SDS011;62512;-46.434;168.382;2022-08-19T00:25:52;2.8;;;2.0;;
74160;SDS011;62512;-46.434;168.382;2022-08-19T00:26:53;2.6;;;1.5;;
74160;SDS011;62512;-46.434;168.382;2022-08-19T00:27:52;3.4;;;1.5;;
74160;SDS011;62512;-46.434;168.382;2022-08-19T00:29:52;1.7;;;1.0;;
74160;SDS011;62512;-46.434;168.382;2022-08-19T00:30:52;3.5;;;1.6;;
74160;SDS011;62512;-46.434;168.382;2022-08-19T00:31:52;2.5;;;1.7;;
74160;SDS011;62512;-46.434;168.382;2022-08-19T00:32:53;1.8;;;1.1;;
74160;SDS011;62512;-46.434;168.382;2022-08-19T00:33:53;2.0;;;1.0;;
74160;SDS011;62512;-46.434;168.382;2022-08-19T00:34:53;2.5;;;0.8;;
74160;SDS011;62512;-46.434;168.382;2022-08-19T00:35:54;1.1;;;0.6;;
74160;SDS011;62512;-46.434;168.382;2022-08-19T00:36:53;2.1;;;0.7;;
74160;SDS011;62512;-46.434;168.382;2022-08-19T00:37:53;1.5;;;1.0;;
74160;SDS011;62512;-46.434;168.382;2022-08-19T00:38:52;3.3;;;1.7;;
74160;SDS011;62512;-46.434;168.382;2022-08-19T00:39:53;2.8;;;2.0;;
74160;SDS011;62512;-46.434;168.382;2022-08-19T00:40:53;5.4;;;2.4;;
74160;SDS011;62512;-46.434;168.382;2022-08-19T00:41:52;6.7;;;2.9;;
74160;SDS011;62512;-46.434;168.382;2022-08-19T00:42:52;5.7;;;3.7;;
74160;SDS011;62512;-46.434;168.382;2022-08-19T00:44:10;6.8;;;3.7;;
74160;SDS011;62512;-46.434;168.382;2022-08-19T00:44:52;7.4;;;3.8;;
74160;SDS011;62512;-46.434;168.382;2022-08-19T00:45:53;5.3;;;3.7;;
74160;SDS011;62512;-46.434;168.382;2022-08-19T00:46:54;5.9;;;4.1;;
74160;SDS011;62512;-46.434;168.382;2022-08-19T00:48:53;7.4;;;3.8;;
74160;SDS011;62512;-46.434;168.382;2022-08-19T00:49:56;4.8;;;3.5;;
74160;SDS011;62512;-46.434;168.382;2022-08-19T00:50:53;4.8;;;3.6;;
74160;SDS011;62512;-46.434;168.382;2022-08-19T00:51:58;5.4;;;3.2;;
74160;SDS011;62512;-46.434;168.382;2022-08-19T00:53:54;4.9;;;2.9;;
74160;SDS011;62512;-46.434;168.382;2022-08-19T00:54:53;3.7;;;2.6;;
74160;SDS011;62512;-46.434;168.382;2022-08-19T00:55:54;4.5;;;2.6;;
74160;SDS011;62512;-46.434;168.382;2022-08-19T00:56:53;3.1;;;2.1;;
74160;SDS011;62512;-46.434;168.382;2022-08-19T00:57:56;2.7;;;2.4;;
74160;SDS011;62512;-46.434;168.382;2022-08-19T00:58:54;3.3;;;2.2;;
74160;SDS011;62512;-46.434;168.382;2022-08-19T00:59:54;2.6;;;1.7;;
74160;SDS011;62512;-46.434;168.382;2022-08-19T01:01:52;2.1;;;1.8;;
74160;SDS011;62512;-46.434;168.382;2022-08-19T01:02:53;1.6;;;1.4;;
74160;SDS011;62512;-46.434;168.382;2022-08-19T01:03:52;2.1;;;1.7;;
74160;SDS011;62512;-46.434;168.382;2022-08-19T01:04:53;3.7;;;1.6;;
74160;SDS011;62512;-46.434;168.382;2022-08-19T01:05:54;2.4;;;1.7;;
74160;SDS011;62512;-46.434;168.382;2022-08-19T01:06:52;1.8;;;1.6;;
74160;SDS011;62512;-46.434;168.382;2022-08-19T01:07:53;2.3;;;1.7;;
74160;SDS011;62512;-46.434;168.382;2022-08-19T01:08:54;3.7;;;1.5;;
74160;SDS011;62512;-46.434;168.382;2022-08-19T01:10:55;3.0;;;1.6;;
74160;SDS011;62512;-46.434;168.382;2022-08-19T01:11:52;3.9;;;2.1;;
74160;SDS011;62512;-46.434;168.382;2022-08-19T01:12:54;4.1;;;2.3;;
74160;SDS011;62512;-46.434;168.382;2022-08-19T01:13:54;3.8;;;2.4;;
74160;SDS011;62512;-46.434;168.382;2022-08-19T01:14:53;4.5;;;2.7;;
74160;SDS011;62512;-46.434;168.382;2022-08-19T01:15:56;5.2;;;2.4;;
74160;SDS011;62512;-46.434;168.382;2022-08-19T01:16:53;4.3;;;2.5;;
74160;SDS011;62512;-46.434;168.382;2022-08-19T01:17:53;6.1;;;3.0;;
74160;SDS011;62512;-46.434;168.382;2022-08-19T01:18:53;4.8;;;3.3;;
74160;SDS011;62512;-46.434;168.382;2022-08-19T01:19:52;4.6;;;3.0;;
74160;SDS011;62512;-46.434;168.382;2022-08-19T01:20:55;3.8;;;2.4;;
74160;SDS011;62512;-46.434;168.382;2022-08-19T01:21:57;3.9;;;2.3;;
74160;SDS011;62512;-46.434;168.382;2022-08-19T01:22:55;2.3;;;1.4;;
74160;SDS011;62512;-46.434;168.382;2022-08-19T01:23:53;1.8;;;1.6;;
74160;SDS011;62512;-46.434;168.382;2022-08-19T01:24:52;1.2;;;0.9;;
74160;SDS011;62512;-46.434;168.382;2022-08-19T01:25:53;1.8;;;0.9;;
74160;SDS011;62512;-46.434;168.382;2022-08-19T01:26:52;0.9;;;0.6;;
74160;SDS011;62512;-46.434;168.382;2022-08-19T01:27:53;1.6;;;1.0;;
74160;SDS011;62512;-46.434;168.382;2022-08-19T01:28:58;2.7;;;1.2;;
74160;SDS011;62512;-46.434;168.382;2022-08-19T01:29:52;0.9;;;0.7;;
74160;SDS011;62512;-46.434;168.382;2022-08-19T01:30:53;1.4;;;1.1;;
74160;SDS011;62512;-46.434;168.382;2022-08-19T01:31:52;2.6;;;1.2;;
74160;SDS011;62512;-46.434;168.382;2022-08-19T01:33:55;2.1;;;1.5;;
74160;SDS011;62512;-46.434;168.382;2022-08-19T01:34:52;1.6;;;1.0;;
74160;SDS011;62512;-46.434;168.382;2022-08-19T01:35:52;1.2;;;0.7;;
74160;SDS011;62512;-46.434;168.382;2022-08-19T01:36:53;0.8;;;0.5;;
74160;SDS011;62512;-46.434;168.382;2022-08-19T01:37:59;1.0;;;0.5;;
74160;SDS011;62512;-46.434;168.382;2022-08-19T01:38:53;1.3;;;0.6;;
74160;SDS011;62512;-46.434;168.382;2022-08-19T01:39:52;1.2;;;1.0;;
74160;SDS011;62512;-46.434;168.382;2022-08-19T01:40:52;1.9;;;1.2;;
74160;SDS011;62512;-46.434;168.382;2022-08-19T01:41:52;1.4;;;0.9;;
74160;SDS011;62512;-46.434;168.382;2022-08-19T01:42:53;2.0;;;1.3;;
74160;SDS011;62512;-46.434;168.382;2022-08-19T01:43:53;1.8;;;1.1;;
74160;SDS011;62512;-46.434;168.382;2022-08-19T01:44:52;2.1;;;0.9;;
74160;SDS011;62512;-46.434;168.382;2022-08-19T01:45:52;1.9;;;1.3;;
74160;SDS011;62512;-46.434;168.382;2022-08-19T01:46:52;1.8;;;1.0;;
74160;SDS011;62512;-46.434;168.382;2022-08-19T01:47:53;1.4;;;1.0;;
74160;SDS011;62512;-46.434;168.382;2022-08-19T01:48:52;1.5;;;1.1;;
74160;SDS011;62512;-46.434;168.382;2022-08-19T01:49:52;0.9;;;0.5;;
74160;SDS011;62512;-46.434;168.382;2022-08-19T01:50:52;0.8;;;0.5;;
74160;SDS011;62512;-46.434;168.382;2022-08-19T01:51:53;1.8;;;0.9;;
74160;SDS011;62512;-46.434;168.382;2022-08-19T01:52:52;2.7;;;1.1;;
74160;SDS011;62512;-46.434;168.382;2022-08-19T01:53:52;1.3;;;1.0;;
74160;SDS011;62512;-46.434;168.382;2022-08-19T01:55:52;1.0;;;0.6;;
74160;SDS011;62512;-46.434;168.382;2022-08-19T01:56:55;2.3;;;0.9;;
74160;SDS011;62512;-46.434;168.382;2022-08-19T01:57:57;5.8;;;2.3;;
74160;SDS011;62512;-46.434;168.382;2022-08-19T01:58:58;2.2;;;0.8;;
74160;SDS011;62512;-46.434;168.382;2022-08-19T02:00:52;2.0;;;0.9;;
74160;SDS011;62512;-46.434;168.382;2022-08-19T02:01:52;2.2;;;0.7;;
74160;SDS011;62512;-46.434;168.382;2022-08-19T02:02:52;5.3;;;1.4;;
74160;SDS011;62512;-46.434;168.382;2022-08-19T02:03:52;1.4;;;0.7;;
74160;SDS011;62512;-46.434;168.382;2022-08-19T02:04:52;1.2;;;0.5;;
74160;SDS011;62512;-46.434;168.382;2022-08-19T02:05:56;0.7;;;0.6;;
74160;SDS011;62512;-46.434;168.382;2022-08-19T02:06:52;1.0;;;0.6;;
74160;SDS011;62512;-46.434;168.382;2022-08-19T02:07:52;1.6;;;0.7;;
74160;SDS011;62512;-46.434;168.382;2022-08-19T02:08:52;3.8;;;1.2;;
74160;SDS011;62512;-46.434;168.382;2022-08-19T02:09:52;4.2;;;2.5;;
74160;SDS011;62512;-46.434;168.382;2022-08-19T02:10:53;1.8;;;1.1;;
74160;SDS011;62512;-46.434;168.382;2022-08-19T02:11:52;2.4;;;1.4;;
74160;SDS011;62512;-46.434;168.382;2022-08-19T02:12:52;6.6;;;3.3;;
74160;SDS011;62512;-46.434;168.382;2022-08-19T02:16:52;0.8;;;0.5;;
74160;SDS011;62512;-46.434;168.382;2022-08-19T02:17:52;0.8;;;0.4;;
74160;SDS011;62512;-46.434;168.382;2022-08-19T02:21:52;6.3;;;2.5;;
74160;SDS011;62512;-46.434;168.382;2022-08-19T02:22:52;5.6;;;3.3;;
74160;SDS011;62512;-46.434;168.382;2022-08-19T02:23:52;3.8;;;1.6;;
74160;SDS011;62512;-46.434;168.382;2022-08-19T02:24:53;2.0;;;0.8;;
74160;SDS011;62512;-46.434;168.382;2022-08-19T02:25:52;1.2;;;0.7;;
74160;SDS011;62512;-46.434;168.382;2022-08-19T02:26:53;1.8;;;0.7;;
74160;SDS011;62512;-46.434;168.382;2022-08-19T02:27:52;2.2;;;0.7;;
74160;SDS011;62512;-46.434;168.382;2022-08-19T02:28:53;2.7;;;1.0;;
74160;SDS011;62512;-46.434;168.382;2022-08-19T02:29:52;2.1;;;1.2;;
74160;SDS011;62512;-46.434;168.382;2022-08-19T02:30:52;3.0;;;1.2;;
74160;SDS011;62512;-46.434;168.382;2022-08-19T02:31:52;2.8;;;1.2;;
74160;SDS011;62512;-46.434;168.382;2022-08-19T02:32:52;6.7;;;3.3;;
74160;SDS011;62512;-46.434;168.382;2022-08-19T02:35:52;5.6;;;2.3;;
74160;SDS011;62512;-46.434;168.382;2022-08-19T02:36:52;2.4;;;1.2;;
74160;SDS011;62512;-46.434;168.382;2022-08-19T02:37:52;6.9;;;2.7;;
74160;SDS011;62512;-46.434;168.382;2022-08-19T02:38:53;3.0;;;1.4;;
74160;SDS011;62512;-46.434;168.382;2022-08-19T02:41:52;2.5;;;0.8;;
74160;SDS011;62512;-46.434;168.382;2022-08-19T02:42:52;1.9;;;0.8;;
74160;SDS011;62512;-46.434;168.382;2022-08-19T02:43:53;1.2;;;0.5;;
74160;SDS011;62512;-46.434;168.382;2022-08-19T02:44:52;1.4;;;0.5;;
74160;SDS011;62512;-46.434;168.382;2022-08-19T02:45:53;0.9;;;0.5;;
74160;SDS011;62512;-46.434;168.382;2022-08-19T02:46:52;1.3;;;0.5;;
74160;SDS011;62512;-46.434;168.382;2022-08-19T02:47:52;2.1;;;0.8;;
74160;SDS011;62512;-46.434;168.382;2022-08-19T02:49:52;2.8;;;0.9;;
74160;SDS011;62512;-46.434;168.382;2022-08-19T02:50:53;2.7;;;1.0;;
74160;SDS011;62512;-46.434;168.382;2022-08-19T02:51:52;2.5;;;1.0;;
74160;SDS011;62512;-46.434;168.382;2022-08-19T02:52:52;2.1;;;0.9;;
74160;SDS011;62512;-46.434;168.382;2022-08-19T02:53:52;2.1;;;0.7;;
74160;SDS011;62512;-46.434;168.382;2022-08-19T02:54:52;1.2;;;1.1;;
74160;SDS011;62512;-46.434;168.382;2022-08-19T02:55:53;3.2;;;1.1;;
74160;SDS011;62512;-46.434;168.382;2022-08-19T02:57:52;4.0;;;1.7;;
74160;SDS011;62512;-46.434;168.382;2022-08-19T02:58:54;3.3;;;1.4;;
74160;SDS011;62512;-46.434;168.382;2022-08-19T03:00:55;3.8;;;1.6;;
74160;SDS011;62512;-46.434;168.382;2022-08-19T03:01:52;2.1;;;1.5;;
74160;SDS011;62512;-46.434;168.382;2022-08-19T03:02:53;4.0;;;1.9;;
74160;SDS011;62512;-46.434;168.382;2022-08-19T03:03:53;2.3;;;1.3;;
74160;SDS011;62512;-46.434;168.382;2022-08-19T03:05:04;unavailable;;;unavailable;;
74160;SDS011;62512;-46.434;168.382;2022-08-19T03:07:59;1.7;;;1.3;;
74160;SDS011;62512;-46.434;168.382;2022-08-19T03:08:53;2.1;;;1.1;;
74160;SDS011;62512;-46.434;168.382;2022-08-19T03:09:52;2.8;;;1.5;;
74160;SDS011;62512;-46.434;168.382;2022-08-19T03:10:53;3.5;;;1.7;;
74160;SDS011;62512;-46.434;168.382;2022-08-19T03:11:52;3.5;;;2.0;;
74160;SDS011;62512;-46.434;168.382;2022-08-19T03:12:52;3.0;;;1.8;;
74160;SDS011;62512;-46.434;168.382;2022-08-19T03:13:53;2.7;;;1.6;;
74160;SDS011;62512;-46.434;168.382;2022-08-19T03:14:52;2.6;;;1.6;;
74160;SDS011;62512;-46.434;168.382;2022-08-19T03:15:52;2.8;;;1.5;;
74160;SDS011;62512;-46.434;168.382;2022-08-19T03:16:52;2.5;;;1.4;;
74160;SDS011;62512;-46.434;168.382;2022-08-19T03:17:52;3.1;;;1.4;;
74160;SDS011;62512;-46.434;168.382;2022-08-19T03:18:53;2.6;;;1.6;;
74160;SDS011;62512;-46.434;168.382;2022-08-19T03:19:52;2.4;;;1.6;;
74160;SDS011;62512;-46.434;168.382;2022-08-19T03:20:53;3.8;;;2.1;;
74160;SDS011;62512;-46.434;168.382;2022-08-19T03:21:52;2.6;;;1.5;;
74160;SDS011;62512;-46.434;168.382;2022-08-19T03:22:52;2.7;;;1.1;;
74160;SDS011;62512;-46.434;168.382;2022-08-19T03:23:55;2.3;;;1.3;;
74160;SDS011;62512;-46.434;168.382;2022-08-19T03:24:52;2.0;;;1.0;;
74160;SDS011;62512;-46.434;168.382;2022-08-19T03:25:53;1.8;;;1.0;;
74160;SDS011;62512;-46.434;168.382;2022-08-19T03:26:54;1.9;;;1.0;;
74160;SDS011;62512;-46.434;168.382;2022-08-19T03:27:52;2.2;;;1.0;;
74160;SDS011;62512;-46.434;168.382;2022-08-19T03:28:52;3.2;;;1.1;;
74160;SDS011;62512;-46.434;168.382;2022-08-19T03:29:52;2.7;;;1.1;;
74160;SDS011;62512;-46.434;168.382;2022-08-19T03:30:58;2.1;;;1.0;;
74160;SDS011;62512;-46.434;168.382;2022-08-19T03:31:53;2.1;;;0.8;;
74160;SDS011;62512;-46.434;168.382;2022-08-19T03:32:52;1.3;;;0.8;;
74160;SDS011;62512;-46.434;168.382;2022-08-19T03:33:52;1.0;;;0.8;;
74160;SDS011;62512;-46.434;168.382;2022-08-19T03:34:52;1.4;;;0.7;;
74160;SDS011;62512;-46.434;168.382;2022-08-19T03:36:02;2.4;;;1.2;;
74160;SDS011;62512;-46.434;168.382;2022-08-19T03:36:54;1.9;;;1.2;;
74160;SDS011;62512;-46.434;168.382;2022-08-19T03:37:52;1.7;;;1.1;;
74160;SDS011;62512;-46.434;168.382;2022-08-19T03:38:56;2.0;;;1.2;;
74160;SDS011;62512;-46.434;168.382;2022-08-19T03:39:52;2.8;;;1.1;;
74160;SDS011;62512;-46.434;168.382;2022-08-19T03:40:52;2.2;;;1.2;;
74160;SDS011;62512;-46.434;168.382;2022-08-19T03:41:54;1.9;;;0.9;;
74160;SDS011;62512;-46.434;168.382;2022-08-19T03:43:53;3.3;;;1.0;;
74160;SDS011;62512;-46.434;168.382;2022-08-19T03:44:52;3.2;;;1.1;;
74160;SDS011;62512;-46.434;168.382;2022-08-19T03:46:04;2.9;;;1.4;;
74160;SDS011;62512;-46.434;168.382;2022-08-19T03:47:52;1.9;;;0.9;;
74160;SDS011;62512;-46.434;168.382;2022-08-19T03:48:54;2.0;;;0.9;;
74160;SDS011;62512;-46.434;168.382;2022-08-19T03:50:52;2.4;;;1.1;;
74160;SDS011;62512;-46.434;168.382;2022-08-19T03:51:54;1.1;;;0.9;;
74160;SDS011;62512;-46.434;168.382;2022-08-19T03:52:52;1.7;;;0.8;;
74160;SDS011;62512;-46.434;168.382;2022-08-19T03:53:54;2.0;;;0.8;;
74160;SDS011;62512;-46.434;168.382;2022-08-19T03:54:52;3.0;;;1.8;;
74160;SDS011;62512;-46.434;168.382;2022-08-19T03:55:52;2.5;;;1.6;;
74160;SDS011;62512;-46.434;168.382;2022-08-19T03:56:54;2.3;;;1.2;;
74160;SDS011;62512;-46.434;168.382;2022-08-19T03:57:52;2.8;;;1.0;;
74160;SDS011;62512;-46.434;168.382;2022-08-19T03:58:53;1.8;;;0.7;;
74160;SDS011;62512;-46.434;168.382;2022-08-19T03:59:52;1.9;;;0.8;;
74160;SDS011;62512;-46.434;168.382;2022-08-19T04:00:52;3.4;;;0.9;;
74160;SDS011;62512;-46.434;168.382;2022-08-19T04:02:52;2.7;;;0.8;;
74160;SDS011;62512;-46.434;168.382;2022-08-19T04:03:53;2.6;;;0.8;;
74160;SDS011;62512;-46.434;168.382;2022-08-19T04:05:53;2.5;;;0.7;;
74160;SDS011;62512;-46.434;168.382;2022-08-19T04:06:52;3.4;;;1.2;;
74160;SDS011;62512;-46.434;168.382;2022-08-19T04:08:54;1.5;;;0.7;;
74160;SDS011;62512;-46.434;168.382;2022-08-19T04:09:52;1.9;;;1.2;;
74160;SDS011;62512;-46.434;168.382;2022-08-19T04:11:08;1.6;;;0.5;;
74160;SDS011;62512;-46.434;168.382;2022-08-19T04:11:54;1.7;;;0.8;;
74160;SDS011;62512;-46.434;168.382;2022-08-19T04:12:52;2.3;;;0.6;;
74160;SDS011;62512;-46.434;168.382;2022-08-19T04:13:53;3.4;;;0.7;;
74160;SDS011;62512;-46.434;168.382;2022-08-19T04:14:52;1.4;;;0.7;;
74160;SDS011;62512;-46.434;168.382;2022-08-19T04:15:53;1.2;;;0.5;;
74160;SDS011;62512;-46.434;168.382;2022-08-19T04:16:53;2.1;;;0.6;;
74160;SDS011;62512;-46.434;168.382;2022-08-19T04:17:52;1.8;;;0.7;;
74160;SDS011;62512;-46.434;168.382;2022-08-19T04:18:52;1.8;;;0.6;;
74160;SDS011;62512;-46.434;168.382;2022-08-19T04:19:53;1.6;;;0.7;;
74160;SDS011;62512;-46.434;168.382;2022-08-19T04:20:53;0.7;;;0.5;;
74160;SDS011;62512;-46.434;168.382;2022-08-19T04:21:54;0.8;;;0.5;;
74160;SDS011;62512;-46.434;168.382;2022-08-19T04:22:52;2.6;;;0.6;;
74160;SDS011;62512;-46.434;168.382;2022-08-19T04:23:53;0.7;;;0.5;;
74160;SDS011;62512;-46.434;168.382;2022-08-19T04:24:52;1.8;;;0.9;;
74160;SDS011;62512;-46.434;168.382;2022-08-19T04:25:52;0.7;;;0.6;;
74160;SDS011;62512;-46.434;168.382;2022-08-19T04:26:52;1.1;;;0.7;;
74160;SDS011;62512;-46.434;168.382;2022-08-19T04:27:52;1.3;;;0.7;;
74160;SDS011;62512;-46.434;168.382;2022-08-19T04:28:54;1.9;;;0.6;;
74160;SDS011;62512;-46.434;168.382;2022-08-19T04:30:54;1.7;;;0.7;;
74160;SDS011;62512;-46.434;168.382;2022-08-19T04:31:54;1.9;;;0.7;;
74160;SDS011;62512;-46.434;168.382;2022-08-19T04:32:54;1.1;;;0.7;;
74160;SDS011;62512;-46.434;168.382;2022-08-19T04:33:54;0.8;;;0.8;;
74160;SDS011;62512;-46.434;168.382;2022-08-19T04:34:52;0.8;;;0.5;;
74160;SDS011;62512;-46.434;168.382;2022-08-19T04:35:52;0.6;;;0.6;;
74160;SDS011;62512;-46.434;168.382;2022-08-19T04:36:54;2.7;;;0.7;;
74160;SDS011;62512;-46.434;168.382;2022-08-19T04:37:52;2.7;;;0.7;;
74160;SDS011;62512;-46.434;168.382;2022-08-19T04:38:56;0.9;;;0.6;;
74160;SDS011;62512;-46.434;168.382;2022-08-19T04:39:52;1.3;;;0.6;;
74160;SDS011;62512;-46.434;168.382;2022-08-19T04:40:52;1.3;;;0.7;;
74160;SDS011;62512;-46.434;168.382;2022-08-19T04:41:52;1.9;;;0.7;;
74160;SDS011;62512;-46.434;168.382;2022-08-19T04:42:52;1.5;;;0.8;;
74160;SDS011;62512;-46.434;168.382;2022-08-19T04:43:52;2.2;;;0.8;;
74160;SDS011;62512;-46.434;168.382;2022-08-19T04:44:52;2.2;;;1.0;;
74160;SDS011;62512;-46.434;168.382;2022-08-19T04:45:52;1.2;;;0.8;;
74160;SDS011;62512;-46.434;168.382;2022-08-19T04:46:53;1.2;;;0.8;;
74160;SDS011;62512;-46.434;168.382;2022-08-19T04:47:55;1.5;;;0.8;;
74160;SDS011;62512;-46.434;168.382;2022-08-19T04:48:52;1.5;;;0.8;;
74160;SDS011;62512;-46.434;168.382;2022-08-19T04:49:52;1.8;;;1.0;;
74160;SDS011;62512;-46.434;168.382;2022-08-19T04:50:54;1.6;;;0.9;;
74160;SDS011;62512;-46.434;168.382;2022-08-19T04:51:54;1.4;;;0.9;;
74160;SDS011;62512;-46.434;168.382;2022-08-19T04:52:53;1.4;;;0.9;;
74160;SDS011;62512;-46.434;168.382;2022-08-19T04:53:53;2.8;;;1.0;;
74160;SDS011;62512;-46.434;168.382;2022-08-19T04:54:52;2.3;;;0.7;;
74160;SDS011;62512;-46.434;168.382;2022-08-19T04:55:52;2.6;;;1.0;;
74160;SDS011;62512;-46.434;168.382;2022-08-19T04:56:53;2.4;;;0.9;;
74160;SDS011;62512;-46.434;168.382;2022-08-19T04:57:53;1.7;;;1.3;;
74160;SDS011;62512;-46.434;168.382;2022-08-19T04:59:55;2.6;;;1.9;;
74160;SDS011;62512;-46.434;168.382;2022-08-19T05:01:52;3.5;;;2.3;;
74160;SDS011;62512;-46.434;168.382;2022-08-19T05:02:52;2.2;;;1.7;;
74160;SDS011;62512;-46.434;168.382;2022-08-19T05:03:52;3.2;;;1.9;;
74160;SDS011;62512;-46.434;168.382;2022-08-19T05:04:57;3.0;;;1.9;;
74160;SDS011;62512;-46.434;168.382;2022-08-19T05:05:53;3.0;;;1.9;;
74160;SDS011;62512;-46.434;168.382;2022-08-19T05:06:52;4.0;;;2.4;;
74160;SDS011;62512;-46.434;168.382;2022-08-19T05:07:56;2.9;;;1.4;;
74160;SDS011;62512;-46.434;168.382;2022-08-19T05:08:52;2.9;;;1.4;;
74160;SDS011;62512;-46.434;168.382;2022-08-19T05:09:52;2.3;;;1.7;;
74160;SDS011;62512;-46.434;168.382;2022-08-19T05:10:52;2.8;;;1.4;;
74160;SDS011;62512;-46.434;168.382;2022-08-19T05:12:52;3.0;;;1.3;;
74160;SDS011;62512;-46.434;168.382;2022-08-19T05:14:52;3.8;;;1.3;;
74160;SDS011;62512;-46.434;168.382;2022-08-19T05:15:56;2.7;;;1.6;;
74160;SDS011;62512;-46.434;168.382;2022-08-19T05:16:52;3.1;;;1.5;;
74160;SDS011;62512;-46.434;168.382;2022-08-19T05:17:52;1.9;;;1.6;;
74160;SDS011;62512;-46.434;168.382;2022-08-19T05:18:53;2.1;;;1.3;;
74160;SDS011;62512;-46.434;168.382;2022-08-19T05:19:52;2.1;;;1.3;;
74160;SDS011;62512;-46.434;168.382;2022-08-19T05:20:52;2.5;;;1.2;;
74160;SDS011;62512;-46.434;168.382;2022-08-19T05:21:53;2.5;;;1.6;;
74160;SDS011;62512;-46.434;168.382;2022-08-19T05:22:52;2.4;;;1.3;;
74160;SDS011;62512;-46.434;168.382;2022-08-19T05:23:52;3.5;;;1.3;;
74160;SDS011;62512;-46.434;168.382;2022-08-19T05:24:52;4.7;;;1.6;;
74160;SDS011;62512;-46.434;168.382;2022-08-19T05:25:52;4.3;;;1.2;;
74160;SDS011;62512;-46.434;168.382;2022-08-19T05:26:54;3.5;;;1.3;;
74160;SDS011;62512;-46.434;168.382;2022-08-19T05:27:52;3.2;;;1.3;;
74160;SDS011;62512;-46.434;168.382;2022-08-19T05:28:53;1.7;;;1.2;;
74160;SDS011;62512;-46.434;168.382;2022-08-19T05:29:52;3.0;;;1.5;;
74160;SDS011;62512;-46.434;168.382;2022-08-19T05:30:52;4.3;;;2.5;;
74160;SDS011;62512;-46.434;168.382;2022-08-19T05:31:54;3.9;;;2.0;;
74160;SDS011;62512;-46.434;168.382;2022-08-19T05:32:52;3.1;;;1.6;;
74160;SDS011;62512;-46.434;168.382;2022-08-19T05:33:52;2.3;;;1.4;;
74160;SDS011;62512;-46.434;168.382;2022-08-19T05:34:52;2.9;;;1.5;;
74160;SDS011;62512;-46.434;168.382;2022-08-19T05:35:52;2.9;;;1.6;;
74160;SDS011;62512;-46.434;168.382;2022-08-19T05:36:55;2.3;;;1.4;;
74160;SDS011;62512;-46.434;168.382;2022-08-19T05:37:52;2.5;;;1.4;;
74160;SDS011;62512;-46.434;168.382;2022-08-19T05:38:53;3.6;;;2.1;;
74160;SDS011;62512;-46.434;168.382;2022-08-19T05:39:52;3.5;;;2.0;;
74160;SDS011;62512;-46.434;168.382;2022-08-19T05:40:52;4.4;;;3.7;;
74160;SDS011;62512;-46.434;168.382;2022-08-19T05:41:56;3.7;;;2.6;;
74160;SDS011;62512;-46.434;168.382;2022-08-19T05:42:52;4.8;;;2.7;;
74160;SDS011;62512;-46.434;168.382;2022-08-19T05:43:52;3.2;;;2.2;;
74160;SDS011;62512;-46.434;168.382;2022-08-19T05:44:53;4.0;;;1.5;;
74160;SDS011;62512;-46.434;168.382;2022-08-19T05:45:52;2.3;;;1.1;;
74160;SDS011;62512;-46.434;168.382;2022-08-19T05:46:53;2.0;;;1.0;;
74160;SDS011;62512;-46.434;168.382;2022-08-19T05:47:52;1.7;;;1.0;;
74160;SDS011;62512;-46.434;168.382;2022-08-19T05:48:52;1.9;;;1.2;;
74160;SDS011;62512;-46.434;168.382;2022-08-19T05:49:52;3.6;;;1.2;;
74160;SDS011;62512;-46.434;168.382;2022-08-19T05:50:52;3.2;;;1.1;;
74160;SDS011;62512;-46.434;168.382;2022-08-19T05:51:53;1.6;;;1.3;;
74160;SDS011;62512;-46.434;168.382;2022-08-19T05:52:52;2.5;;;1.1;;
74160;SDS011;62512;-46.434;168.382;2022-08-19T05:53:52;1.8;;;0.8;;
74160;SDS011;62512;-46.434;168.382;2022-08-19T05:54:53;2.7;;;0.9;;
74160;SDS011;62512;-46.434;168.382;2022-08-19T05:55:52;1.8;;;1.1;;
74160;SDS011;62512;-46.434;168.382;2022-08-19T05:56:53;4.3;;;1.4;;
74160;SDS011;62512;-46.434;168.382;2022-08-19T05:57:52;2.7;;;1.4;;
74160;SDS011;62512;-46.434;168.382;2022-08-19T05:58:52;1.6;;;1.5;;
74160;SDS011;62512;-46.434;168.382;2022-08-19T05:59:52;2.4;;;1.2;;
74160;SDS011;62512;-46.434;168.382;2022-08-19T06:00:52;3.4;;;1.4;;
74160;SDS011;62512;-46.434;168.382;2022-08-19T06:01:53;3.6;;;1.6;;
74160;SDS011;62512;-46.434;168.382;2022-08-19T06:02:52;3.7;;;2.4;;
74160;SDS011;62512;-46.434;168.382;2022-08-19T06:03:53;3.0;;;2.2;;
74160;SDS011;62512;-46.434;168.382;2022-08-19T06:05:52;2.7;;;1.8;;
74160;SDS011;62512;-46.434;168.382;2022-08-19T06:06:54;3.4;;;2.3;;
74160;SDS011;62512;-46.434;168.382;2022-08-19T06:07:52;3.1;;;1.8;;
74160;SDS011;62512;-46.434;168.382;2022-08-19T06:08:52;3.9;;;2.3;;
74160;SDS011;62512;-46.434;168.382;2022-08-19T06:09:52;3.3;;;1.7;;
74160;SDS011;62512;-46.434;168.382;2022-08-19T06:10:52;6.1;;;3.1;;
74160;SDS011;62512;-46.434;168.382;2022-08-19T06:11:55;6.8;;;4.1;;
74160;SDS011;62512;-46.434;168.382;2022-08-19T06:12:53;3.8;;;2.4;;
74160;SDS011;62512;-46.434;168.382;2022-08-19T06:13:53;9.1;;;3.8;;
74160;SDS011;62512;-46.434;168.382;2022-08-19T06:14:52;8.0;;;4.5;;
74160;SDS011;62512;-46.434;168.382;2022-08-19T06:15:52;7.8;;;4.5;;
74160;SDS011;62512;-46.434;168.382;2022-08-19T06:16:52;9.6;;;5.0;;
74160;SDS011;62512;-46.434;168.382;2022-08-19T06:17:52;18.8;;;9.2;;
74160;SDS011;62512;-46.434;168.382;2022-08-19T06:18:53;16.1;;;7.5;;
74160;SDS011;62512;-46.434;168.382;2022-08-19T06:19:52;5.8;;;3.4;;
74160;SDS011;62512;-46.434;168.382;2022-08-19T06:20:52;6.0;;;3.3;;
74160;SDS011;62512;-46.434;168.382;2022-08-19T06:21:53;7.1;;;3.4;;
74160;SDS011;62512;-46.434;168.382;2022-08-19T06:22:53;5.3;;;3.2;;
74160;SDS011;62512;-46.434;168.382;2022-08-19T06:23:52;3.7;;;2.3;;
74160;SDS011;62512;-46.434;168.382;2022-08-19T06:24:53;4.9;;;3.0;;
74160;SDS011;62512;-46.434;168.382;2022-08-19T06:25:52;10.3;;;3.5;;
74160;SDS011;62512;-46.434;168.382;2022-08-19T06:26:54;9.0;;;5.5;;
74160;SDS011;62512;-46.434;168.382;2022-08-19T06:27:52;13.0;;;10.0;;
74160;SDS011;62512;-46.434;168.382;2022-08-19T06:28:52;11.1;;;9.1;;
74160;SDS011;62512;-46.434;168.382;2022-08-19T06:29:52;14.7;;;11.6;;
74160;SDS011;62512;-46.434;168.382;2022-08-19T06:30:52;10.4;;;9.3;;
74160;SDS011;62512;-46.434;168.382;2022-08-19T06:31:54;10.7;;;9.2;;
74160;SDS011;62512;-46.434;168.382;2022-08-19T06:32:52;11.1;;;9.4;;